sensor_id;sensor_type;location;lat;lon;timestamp;temperature;humidity
18225;DHT22;9237;48.590;8.854;2022-10-26T00:02:12;10.10;99.90
18225;DHT22;9237;48.590;8.854;2022-10-26T00:04:39;10.10;99.90
18225;DHT22;9237;48.590;8.854;2022-10-26T00:07:06;10.10;99.90
18225;DHT22;9237;48.590;8.854;2022-10-26T00:09:33;10.10;99.90
18225;DHT22;9237;48.590;8.854;2022-10-26T00:11:59;10.00;99.90
18225;DHT22;9237;48.590;8.854;2022-10-26T00:14:26;10.00;99.90
18225;DHT22;9237;48.590;8.854;2022-10-26T00:16:53;10.00;99.90
18225;DHT22;9237;48.590;8.854;2022-10-26T00:19:22;10.00;99.90
18225;DHT22;9237;48.590;8.854;2022-10-26T00:21:49;10.00;99.90
18225;DHT22;9237;48.590;8.854;2022-10-26T00:24:15;9.90;99.90
18225;DHT22;9237;48.590;8.854;2022-10-26T00:26:42;10.00;99.90
18225;DHT22;9237;48.590;8.854;2022-10-26T00:29:10;9.90;99.90
18225;DHT22;9237;48.590;8.854;2022-10-26T00:31:37;9.90;99.90
18225;DHT22;9237;48.590;8.854;2022-10-26T00:34:05;9.90;99.90
18225;DHT22;9237;48.590;8.854;2022-10-26T00:36:33;10.00;99.90
18225;DHT22;9237;48.590;8.854;2022-10-26T00:39:00;9.90;99.90
18225;DHT22;9237;48.590;8.854;2022-10-26T00:41:29;10.00;99.90
18225;DHT22;9237;48.590;8.854;2022-10-26T00:43:57;10.00;99.90
18225;DHT22;9237;48.590;8.854;2022-10-26T00:46:28;10.00;99.90
18225;DHT22;9237;48.590;8.854;2022-10-26T00:48:57;10.10;99.90
18225;DHT22;9237;48.590;8.854;2022-10-26T00:51:29;10.10;99.90
18225;DHT22;9237;48.590;8.854;2022-10-26T00:54:03;10.10;99.90
18225;DHT22;9237;48.590;8.854;2022-10-26T00:56:31;10.10;99.90
18225;DHT22;9237;48.590;8.854;2022-10-26T00:59:01;10.10;99.90
18225;DHT22;9237;48.590;8.854;2022-10-26T01:01:30;10.10;99.90
18225;DHT22;9237;48.590;8.854;2022-10-26T01:03:59;10.10;99.90
18225;DHT22;9237;48.590;8.854;2022-10-26T01:06:27;10.00;99.90
18225;DHT22;9237;48.590;8.854;2022-10-26T01:08:54;10.10;99.90
18225;DHT22;9237;48.590;8.854;2022-10-26T01:11:22;10.10;99.90
18225;DHT22;9237;48.590;8.854;2022-10-26T01:13:50;10.10;99.90
18225;DHT22;9237;48.590;8.854;2022-10-26T01:16:31;10.20;99.90
18225;DHT22;9237;48.590;8.854;2022-10-26T01:19:21;10.30;99.90
18225;DHT22;9237;48.590;8.854;2022-10-26T01:21:58;10.30;99.90
18225;DHT22;9237;48.590;8.854;2022-10-26T01:24:44;10.20;99.90
18225;DHT22;9237;48.590;8.854;2022-10-26T01:27:22;10.10;99.90
18225;DHT22;9237;48.590;8.854;2022-10-26T01:30:12;10.10;99.90
18225;DHT22;9237;48.590;8.854;2022-10-26T01:32:43;10.20;99.90
18225;DHT22;9237;48.590;8.854;2022-10-26T01:35:14;10.20;99.90
18225;DHT22;9237;48.590;8.854;2022-10-26T01:37:47;10.20;99.90
18225;DHT22;9237;48.590;8.854;2022-10-26T01:40:18;10.10;99.90
18225;DHT22;9237;48.590;8.854;2022-10-26T01:42:50;10.10;99.90
18225;DHT22;9237;48.590;8.854;2022-10-26T01:45:20;10.10;99.90
18225;DHT22;9237;48.590;8.854;2022-10-26T01:47:47;10.10;99.90
18225;DHT22;9237;48.590;8.854;2022-10-26T01:50:16;10.10;99.90
18225;DHT22;9237;48.590;8.854;2022-10-26T01:52:43;10.00;99.90
18225;DHT22;9237;48.590;8.854;2022-10-26T01:55:38;10.00;99.90
18225;DHT22;9237;48.590;8.854;2022-10-26T01:58:12;9.90;99.90
18225;DHT22;9237;48.590;8.854;2022-10-26T02:00:49;10.10;99.90
18225;DHT22;9237;48.590;8.854;2022-10-26T02:03:23;10.00;99.90
18225;DHT22;9237;48.590;8.854;2022-10-26T02:06:02;10.10;99.90
18225;DHT22;9237;48.590;8.854;2022-10-26T02:08:47;10.10;99.90
18225;DHT22;9237;48.590;8.854;2022-10-26T02:11:25;10.10;99.90
18225;DHT22;9237;48.590;8.854;2022-10-26T02:14:05;10.10;99.90
18225;DHT22;9237;48.590;8.854;2022-10-26T02:16:40;10.20;99.90
18225;DHT22;9237;48.590;8.854;2022-10-26T02:19:17;10.30;99.90
18225;DHT22;9237;48.590;8.854;2022-10-26T02:21:51;10.30;99.90
18225;DHT22;9237;48.590;8.854;2022-10-26T02:24:21;10.20;99.90
18225;DHT22;9237;48.590;8.854;2022-10-26T02:26:49;9.10;99.90
18225;DHT22;9237;48.590;8.854;2022-10-26T02:29:19;10.30;99.90
18225;DHT22;9237;48.590;8.854;2022-10-26T02:31:48;10.30;99.90
18225;DHT22;9237;48.590;8.854;2022-10-26T02:34:19;10.20;99.90
18225;DHT22;9237;48.590;8.854;2022-10-26T02:36:48;10.10;99.90
18225;DHT22;9237;48.590;8.854;2022-10-26T02:39:17;9.90;99.90
18225;DHT22;9237;48.590;8.854;2022-10-26T02:41:45;9.90;99.90
18225;DHT22;9237;48.590;8.854;2022-10-26T02:44:17;9.80;99.90
18225;DHT22;9237;48.590;8.854;2022-10-26T02:46:46;9.70;99.90
18225;DHT22;9237;48.590;8.854;2022-10-26T02:49:13;9.80;99.90
18225;DHT22;9237;48.590;8.854;2022-10-26T02:51:44;9.70;99.90
18225;DHT22;9237;48.590;8.854;2022-10-26T02:54:16;9.70;99.90
18225;DHT22;9237;48.590;8.854;2022-10-26T02:56:50;9.70;99.90
18225;DHT22;9237;48.590;8.854;2022-10-26T02:59:19;9.70;99.90
18225;DHT22;9237;48.590;8.854;2022-10-26T03:01:49;9.80;99.90
18225;DHT22;9237;48.590;8.854;2022-10-26T03:04:17;9.80;99.90
18225;DHT22;9237;48.590;8.854;2022-10-26T03:06:51;9.80;99.90
18225;DHT22;9237;48.590;8.854;2022-10-26T03:09:18;9.90;99.90
18225;DHT22;9237;48.590;8.854;2022-10-26T03:11:44;9.90;99.90
18225;DHT22;9237;48.590;8.854;2022-10-26T03:14:11;10.00;99.90
18225;DHT22;9237;48.590;8.854;2022-10-26T03:16:38;10.00;99.90
18225;DHT22;9237;48.590;8.854;2022-10-26T03:19:06;10.00;99.90
18225;DHT22;9237;48.590;8.854;2022-10-26T03:21:33;10.00;99.90
18225;DHT22;9237;48.590;8.854;2022-10-26T03:24:00;10.10;99.90
18225;DHT22;9237;48.590;8.854;2022-10-26T03:26:27;10.10;99.90
18225;DHT22;9237;48.590;8.854;2022-10-26T03:28:53;10.10;99.90
18225;DHT22;9237;48.590;8.854;2022-10-26T03:31:20;10.10;99.90
18225;DHT22;9237;48.590;8.854;2022-10-26T03:33:47;10.10;99.90
18225;DHT22;9237;48.590;8.854;2022-10-26T03:36:15;10.00;99.90
18225;DHT22;9237;48.590;8.854;2022-10-26T03:38:42;10.00;99.90
18225;DHT22;9237;48.590;8.854;2022-10-26T03:41:09;10.00;99.90
18225;DHT22;9237;48.590;8.854;2022-10-26T03:43:36;10.00;99.90
18225;DHT22;9237;48.590;8.854;2022-10-26T03:46:03;10.00;99.90
18225;DHT22;9237;48.590;8.854;2022-10-26T03:48:29;10.10;99.90
18225;DHT22;9237;48.590;8.854;2022-10-26T03:50:57;10.10;99.90
18225;DHT22;9237;48.590;8.854;2022-10-26T03:53:26;10.10;99.90
18225;DHT22;9237;48.590;8.854;2022-10-26T03:55:53;10.10;99.90
18225;DHT22;9237;48.590;8.854;2022-10-26T03:58:19;10.20;99.90
18225;DHT22;9237;48.590;8.854;2022-10-26T04:00:47;10.30;99.90
18225;DHT22;9237;48.590;8.854;2022-10-26T04:03:13;10.30;99.90
18225;DHT22;9237;48.590;8.854;2022-10-26T04:05:40;10.40;99.90
18225;DHT22;9237;48.590;8.854;2022-10-26T04:08:08;10.40;99.90
18225;DHT22;9237;48.590;8.854;2022-10-26T04:10:36;10.30;99.90
18225;DHT22;9237;48.590;8.854;2022-10-26T04:13:02;10.30;99.90
18225;DHT22;9237;48.590;8.854;2022-10-26T04:15:29;10.30;99.90
18225;DHT22;9237;48.590;8.854;2022-10-26T04:17:57;10.30;99.90
18225;DHT22;9237;48.590;8.854;2022-10-26T04:20:25;10.30;99.90
18225;DHT22;9237;48.590;8.854;2022-10-26T04:22:57;10.40;99.90
18225;DHT22;9237;48.590;8.854;2022-10-26T04:25:24;10.40;99.90
18225;DHT22;9237;48.590;8.854;2022-10-26T04:27:52;10.40;99.90
18225;DHT22;9237;48.590;8.854;2022-10-26T04:30:19;10.50;99.90
18225;DHT22;9237;48.590;8.854;2022-10-26T04:32:46;10.50;99.90
18225;DHT22;9237;48.590;8.854;2022-10-26T04:35:13;10.50;99.90
18225;DHT22;9237;48.590;8.854;2022-10-26T04:37:40;10.50;99.90
18225;DHT22;9237;48.590;8.854;2022-10-26T04:40:08;10.50;99.90
18225;DHT22;9237;48.590;8.854;2022-10-26T04:42:40;10.50;99.90
18225;DHT22;9237;48.590;8.854;2022-10-26T04:45:09;10.40;99.90
18225;DHT22;9237;48.590;8.854;2022-10-26T04:47:36;10.30;99.90
18225;DHT22;9237;48.590;8.854;2022-10-26T04:50:04;10.30;99.90
18225;DHT22;9237;48.590;8.854;2022-10-26T04:52:31;10.30;99.90
18225;DHT22;9237;48.590;8.854;2022-10-26T04:54:58;10.20;99.90
18225;DHT22;9237;48.590;8.854;2022-10-26T04:57:25;10.20;99.90
18225;DHT22;9237;48.590;8.854;2022-10-26T04:59:51;10.10;99.90
18225;DHT22;9237;48.590;8.854;2022-10-26T05:02:20;10.10;99.90
18225;DHT22;9237;48.590;8.854;2022-10-26T05:04:47;10.00;99.90
18225;DHT22;9237;48.590;8.854;2022-10-26T05:07:14;10.00;99.90
18225;DHT22;9237;48.590;8.854;2022-10-26T05:09:41;10.10;99.90
18225;DHT22;9237;48.590;8.854;2022-10-26T05:12:08;10.10;99.90
18225;DHT22;9237;48.590;8.854;2022-10-26T05:14:34;10.10;99.90
18225;DHT22;9237;48.590;8.854;2022-10-26T05:17:01;10.20;99.90
18225;DHT22;9237;48.590;8.854;2022-10-26T05:19:29;10.20;99.90
18225;DHT22;9237;48.590;8.854;2022-10-26T05:21:56;10.30;99.90
18225;DHT22;9237;48.590;8.854;2022-10-26T05:24:23;10.50;99.90
18225;DHT22;9237;48.590;8.854;2022-10-26T05:26:50;10.50;99.90
18225;DHT22;9237;48.590;8.854;2022-10-26T05:29:17;10.50;99.90
18225;DHT22;9237;48.590;8.854;2022-10-26T05:31:43;10.50;99.90
18225;DHT22;9237;48.590;8.854;2022-10-26T05:34:10;10.50;99.90
18225;DHT22;9237;48.590;8.854;2022-10-26T05:36:38;10.50;99.90
18225;DHT22;9237;48.590;8.854;2022-10-26T05:39:05;10.50;99.90
18225;DHT22;9237;48.590;8.854;2022-10-26T05:41:32;10.50;99.90
18225;DHT22;9237;48.590;8.854;2022-10-26T05:43:59;10.50;99.90
18225;DHT22;9237;48.590;8.854;2022-10-26T05:46:26;10.50;99.90
18225;DHT22;9237;48.590;8.854;2022-10-26T05:48:53;10.60;99.90
18225;DHT22;9237;48.590;8.854;2022-10-26T05:51:19;10.60;99.90
18225;DHT22;9237;48.590;8.854;2022-10-26T05:53:50;10.70;99.90
18225;DHT22;9237;48.590;8.854;2022-10-26T05:56:20;10.60;99.90
18225;DHT22;9237;48.590;8.854;2022-10-26T05:58:56;10.60;99.90
18225;DHT22;9237;48.590;8.854;2022-10-26T06:01:30;10.60;99.90
18225;DHT22;9237;48.590;8.854;2022-10-26T06:04:11;10.60;99.90
18225;DHT22;9237;48.590;8.854;2022-10-26T06:06:45;10.60;99.90
18225;DHT22;9237;48.590;8.854;2022-10-26T06:09:15;10.70;99.90
18225;DHT22;9237;48.590;8.854;2022-10-26T06:11:42;10.80;99.90
18225;DHT22;9237;48.590;8.854;2022-10-26T06:14:10;10.80;99.90
18225;DHT22;9237;48.590;8.854;2022-10-26T06:16:45;10.90;99.90
18225;DHT22;9237;48.590;8.854;2022-10-26T06:19:25;10.90;99.90
18225;DHT22;9237;48.590;8.854;2022-10-26T06:22:04;11.00;99.90
18225;DHT22;9237;48.590;8.854;2022-10-26T06:24:43;11.00;99.90
18225;DHT22;9237;48.590;8.854;2022-10-26T06:27:21;11.10;99.90
18225;DHT22;9237;48.590;8.854;2022-10-26T06:29:56;11.20;99.90
18225;DHT22;9237;48.590;8.854;2022-10-26T06:32:25;11.30;99.90
18225;DHT22;9237;48.590;8.854;2022-10-26T06:35:09;11.40;99.90
18225;DHT22;9237;48.590;8.854;2022-10-26T06:37:41;11.60;99.90
18225;DHT22;9237;48.590;8.854;2022-10-26T06:40:12;11.60;99.90
18225;DHT22;9237;48.590;8.854;2022-10-26T06:42:40;11.60;99.90
18225;DHT22;9237;48.590;8.854;2022-10-26T06:45:11;11.70;99.90
18225;DHT22;9237;48.590;8.854;2022-10-26T06:47:43;11.70;99.90
18225;DHT22;9237;48.590;8.854;2022-10-26T06:50:19;11.80;99.90
18225;DHT22;9237;48.590;8.854;2022-10-26T06:52:56;11.80;99.90
18225;DHT22;9237;48.590;8.854;2022-10-26T06:55:25;11.80;99.90
18225;DHT22;9237;48.590;8.854;2022-10-26T06:57:52;11.80;99.90
18225;DHT22;9237;48.590;8.854;2022-10-26T07:00:21;11.90;99.90
18225;DHT22;9237;48.590;8.854;2022-10-26T07:02:49;11.80;99.90
18225;DHT22;9237;48.590;8.854;2022-10-26T07:05:16;11.80;99.90
18225;DHT22;9237;48.590;8.854;2022-10-26T07:07:45;11.80;99.90
18225;DHT22;9237;48.590;8.854;2022-10-26T07:10:13;11.80;99.90
18225;DHT22;9237;48.590;8.854;2022-10-26T07:12:42;11.80;99.90
18225;DHT22;9237;48.590;8.854;2022-10-26T07:15:09;11.90;99.90
18225;DHT22;9237;48.590;8.854;2022-10-26T07:17:42;12.00;99.90
18225;DHT22;9237;48.590;8.854;2022-10-26T07:20:10;12.10;99.90
18225;DHT22;9237;48.590;8.854;2022-10-26T07:22:37;12.30;99.90
18225;DHT22;9237;48.590;8.854;2022-10-26T07:25:05;12.50;99.90
18225;DHT22;9237;48.590;8.854;2022-10-26T07:27:32;12.70;99.90
18225;DHT22;9237;48.590;8.854;2022-10-26T07:30:01;12.80;99.90
18225;DHT22;9237;48.590;8.854;2022-10-26T07:32:27;13.00;99.90
18225;DHT22;9237;48.590;8.854;2022-10-26T07:34:55;13.10;99.90
18225;DHT22;9237;48.590;8.854;2022-10-26T07:37:21;13.20;99.90
18225;DHT22;9237;48.590;8.854;2022-10-26T07:39:48;13.30;99.90
18225;DHT22;9237;48.590;8.854;2022-10-26T07:42:15;13.50;99.90
18225;DHT22;9237;48.590;8.854;2022-10-26T07:44:42;13.80;99.90
18225;DHT22;9237;48.590;8.854;2022-10-26T07:47:10;13.90;99.90
18225;DHT22;9237;48.590;8.854;2022-10-26T07:49:37;14.00;99.90
18225;DHT22;9237;48.590;8.854;2022-10-26T07:52:04;14.10;99.90
18225;DHT22;9237;48.590;8.854;2022-10-26T07:54:30;14.20;99.90
18225;DHT22;9237;48.590;8.854;2022-10-26T07:56:57;14.20;99.90
18225;DHT22;9237;48.590;8.854;2022-10-26T07:59:24;14.20;99.90
18225;DHT22;9237;48.590;8.854;2022-10-26T08:01:51;14.30;99.90
18225;DHT22;9237;48.590;8.854;2022-10-26T08:04:19;14.30;99.90
18225;DHT22;9237;48.590;8.854;2022-10-26T08:06:46;14.30;99.90
18225;DHT22;9237;48.590;8.854;2022-10-26T08:09:13;14.40;99.90
18225;DHT22;9237;48.590;8.854;2022-10-26T08:11:40;14.40;99.90
18225;DHT22;9237;48.590;8.854;2022-10-26T08:14:06;14.50;99.90
18225;DHT22;9237;48.590;8.854;2022-10-26T08:16:33;14.40;99.90
18225;DHT22;9237;48.590;8.854;2022-10-26T08:19:00;14.60;99.90
18225;DHT22;9237;48.590;8.854;2022-10-26T08:21:28;14.60;99.90
18225;DHT22;9237;48.590;8.854;2022-10-26T08:23:55;14.70;99.90
18225;DHT22;9237;48.590;8.854;2022-10-26T08:26:22;14.80;99.90
18225;DHT22;9237;48.590;8.854;2022-10-26T08:28:49;14.90;99.90
18225;DHT22;9237;48.590;8.854;2022-10-26T08:31:16;15.00;99.90
18225;DHT22;9237;48.590;8.854;2022-10-26T08:33:43;15.10;99.90
18225;DHT22;9237;48.590;8.854;2022-10-26T08:36:10;15.20;99.90
18225;DHT22;9237;48.590;8.854;2022-10-26T08:38:40;15.40;99.90
18225;DHT22;9237;48.590;8.854;2022-10-26T08:41:07;15.30;99.90
18225;DHT22;9237;48.590;8.854;2022-10-26T08:43:39;15.50;99.90
18225;DHT22;9237;48.590;8.854;2022-10-26T08:46:10;15.40;99.90
18225;DHT22;9237;48.590;8.854;2022-10-26T08:48:40;15.50;99.90
18225;DHT22;9237;48.590;8.854;2022-10-26T08:51:12;15.50;99.90
18225;DHT22;9237;48.590;8.854;2022-10-26T08:53:46;15.40;99.90
18225;DHT22;9237;48.590;8.854;2022-10-26T08:56:18;15.50;99.90
18225;DHT22;9237;48.590;8.854;2022-10-26T08:58:50;15.50;99.90
18225;DHT22;9237;48.590;8.854;2022-10-26T09:01:18;15.50;99.90
18225;DHT22;9237;48.590;8.854;2022-10-26T09:03:45;15.50;99.90
18225;DHT22;9237;48.590;8.854;2022-10-26T09:06:31;15.40;99.90
18225;DHT22;9237;48.590;8.854;2022-10-26T09:09:07;15.40;99.90
18225;DHT22;9237;48.590;8.854;2022-10-26T09:11:47;15.30;99.90
18225;DHT22;9237;48.590;8.854;2022-10-26T09:14:22;15.40;99.90
18225;DHT22;9237;48.590;8.854;2022-10-26T09:16:59;15.70;99.90
18225;DHT22;9237;48.590;8.854;2022-10-26T09:19:55;15.90;99.90
18225;DHT22;9237;48.590;8.854;2022-10-26T09:22:31;16.00;99.90
18225;DHT22;9237;48.590;8.854;2022-10-26T09:25:09;16.10;99.90
18225;DHT22;9237;48.590;8.854;2022-10-26T09:27:41;16.30;99.90
18225;DHT22;9237;48.590;8.854;2022-10-26T09:30:13;16.30;99.90
18225;DHT22;9237;48.590;8.854;2022-10-26T09:32:44;16.40;99.90
18225;DHT22;9237;48.590;8.854;2022-10-26T09:35:15;16.50;99.90
18225;DHT22;9237;48.590;8.854;2022-10-26T09:37:47;16.70;99.90
18225;DHT22;9237;48.590;8.854;2022-10-26T09:40:20;16.80;99.90
18225;DHT22;9237;48.590;8.854;2022-10-26T09:42:50;16.90;99.90
18225;DHT22;9237;48.590;8.854;2022-10-26T09:45:23;17.00;99.90
18225;DHT22;9237;48.590;8.854;2022-10-26T09:47:53;17.30;99.90
18225;DHT22;9237;48.590;8.854;2022-10-26T09:50:24;17.20;99.90
18225;DHT22;9237;48.590;8.854;2022-10-26T09:52:53;17.40;99.90
18225;DHT22;9237;48.590;8.854;2022-10-26T09:55:21;17.50;99.90
18225;DHT22;9237;48.590;8.854;2022-10-26T09:57:51;17.60;99.90
18225;DHT22;9237;48.590;8.854;2022-10-26T10:00:20;17.70;99.90
18225;DHT22;9237;48.590;8.854;2022-10-26T10:02:50;17.90;99.90
18225;DHT22;9237;48.590;8.854;2022-10-26T10:05:26;18.20;99.90
18225;DHT22;9237;48.590;8.854;2022-10-26T10:08:09;18.40;99.90
18225;DHT22;9237;48.590;8.854;2022-10-26T10:10:38;18.60;99.90
18225;DHT22;9237;48.590;8.854;2022-10-26T10:13:15;18.80;99.90
18225;DHT22;9237;48.590;8.854;2022-10-26T10:15:51;19.00;99.90
18225;DHT22;9237;48.590;8.854;2022-10-26T10:18:20;18.90;99.90
18225;DHT22;9237;48.590;8.854;2022-10-26T10:20:53;18.80;99.90
18225;DHT22;9237;48.590;8.854;2022-10-26T10:23:25;18.80;99.90
18225;DHT22;9237;48.590;8.854;2022-10-26T10:26:07;18.60;99.90
18225;DHT22;9237;48.590;8.854;2022-10-26T10:28:35;18.60;99.90
18225;DHT22;9237;48.590;8.854;2022-10-26T10:31:04;18.60;99.90
18225;DHT22;9237;48.590;8.854;2022-10-26T10:33:34;18.60;99.90
18225;DHT22;9237;48.590;8.854;2022-10-26T10:36:03;18.70;99.90
18225;DHT22;9237;48.590;8.854;2022-10-26T10:38:36;18.90;99.90
18225;DHT22;9237;48.590;8.854;2022-10-26T10:41:14;19.10;99.90
18225;DHT22;9237;48.590;8.854;2022-10-26T10:43:44;19.20;99.90
18225;DHT22;9237;48.590;8.854;2022-10-26T10:46:17;19.50;99.90
18225;DHT22;9237;48.590;8.854;2022-10-26T10:48:47;19.50;99.90
18225;DHT22;9237;48.590;8.854;2022-10-26T10:51:19;19.50;99.90
18225;DHT22;9237;48.590;8.854;2022-10-26T10:53:49;19.60;99.90
18225;DHT22;9237;48.590;8.854;2022-10-26T10:56:37;19.70;99.90
18225;DHT22;9237;48.590;8.854;2022-10-26T10:59:40;19.80;99.90
18225;DHT22;9237;48.590;8.854;2022-10-26T11:02:42;19.90;99.90
18225;DHT22;9237;48.590;8.854;2022-10-26T11:05:32;20.10;99.90
18225;DHT22;9237;48.590;8.854;2022-10-26T11:08:07;20.30;99.90
18225;DHT22;9237;48.590;8.854;2022-10-26T11:10:39;20.70;99.90
18225;DHT22;9237;48.590;8.854;2022-10-26T11:13:17;20.80;99.90
18225;DHT22;9237;48.590;8.854;2022-10-26T11:15:48;20.80;99.90
18225;DHT22;9237;48.590;8.854;2022-10-26T11:18:18;20.70;99.90
18225;DHT22;9237;48.590;8.854;2022-10-26T11:20:52;20.80;99.90
18225;DHT22;9237;48.590;8.854;2022-10-26T11:23:32;20.90;99.90
18225;DHT22;9237;48.590;8.854;2022-10-26T11:26:04;20.80;99.90
18225;DHT22;9237;48.590;8.854;2022-10-26T11:28:46;20.90;99.90
18225;DHT22;9237;48.590;8.854;2022-10-26T11:31:17;21.20;99.90
18225;DHT22;9237;48.590;8.854;2022-10-26T11:33:52;21.00;99.90
18225;DHT22;9237;48.590;8.854;2022-10-26T11:36:22;20.90;99.90
18225;DHT22;9237;48.590;8.854;2022-10-26T11:38:54;20.70;99.90
18225;DHT22;9237;48.590;8.854;2022-10-26T11:41:28;20.70;99.90
18225;DHT22;9237;48.590;8.854;2022-10-26T11:44:08;20.60;99.90
18225;DHT22;9237;48.590;8.854;2022-10-26T11:46:40;20.60;99.90
18225;DHT22;9237;48.590;8.854;2022-10-26T11:49:13;20.60;99.90
18225;DHT22;9237;48.590;8.854;2022-10-26T11:51:45;20.80;99.90
18225;DHT22;9237;48.590;8.854;2022-10-26T11:54:18;21.00;99.90
18225;DHT22;9237;48.590;8.854;2022-10-26T11:56:48;21.10;99.90
18225;DHT22;9237;48.590;8.854;2022-10-26T11:59:19;21.00;99.90
18225;DHT22;9237;48.590;8.854;2022-10-26T12:01:48;20.90;99.90
18225;DHT22;9237;48.590;8.854;2022-10-26T12:04:17;21.00;99.90
18225;DHT22;9237;48.590;8.854;2022-10-26T12:06:44;20.90;99.90
18225;DHT22;9237;48.590;8.854;2022-10-26T12:09:17;20.80;99.90
18225;DHT22;9237;48.590;8.854;2022-10-26T12:11:48;20.80;99.90
18225;DHT22;9237;48.590;8.854;2022-10-26T12:14:21;20.90;99.90
18225;DHT22;9237;48.590;8.854;2022-10-26T12:16:57;21.00;99.90
18225;DHT22;9237;48.590;8.854;2022-10-26T12:19:33;21.00;99.90
18225;DHT22;9237;48.590;8.854;2022-10-26T12:22:09;20.90;99.90
18225;DHT22;9237;48.590;8.854;2022-10-26T12:24:42;21.00;99.90
18225;DHT22;9237;48.590;8.854;2022-10-26T12:27:29;21.00;99.90
18225;DHT22;9237;48.590;8.854;2022-10-26T12:30:23;21.10;99.90
18225;DHT22;9237;48.590;8.854;2022-10-26T12:32:55;21.20;99.90
18225;DHT22;9237;48.590;8.854;2022-10-26T12:35:34;21.40;99.90
18225;DHT22;9237;48.590;8.854;2022-10-26T12:41:07;21.40;99.90
18225;DHT22;9237;48.590;8.854;2022-10-26T12:43:41;21.40;99.90
18225;DHT22;9237;48.590;8.854;2022-10-26T12:46:43;21.30;99.90
18225;DHT22;9237;48.590;8.854;2022-10-26T12:52:42;21.10;99.90
18225;DHT22;9237;48.590;8.854;2022-10-26T12:55:32;21.10;99.90
18225;DHT22;9237;48.590;8.854;2022-10-26T12:58:19;21.00;99.90
18225;DHT22;9237;48.590;8.854;2022-10-26T13:01:07;21.00;99.90
18225;DHT22;9237;48.590;8.854;2022-10-26T13:03:47;21.10;99.90
18225;DHT22;9237;48.590;8.854;2022-10-26T13:06:32;21.10;99.90
18225;DHT22;9237;48.590;8.854;2022-10-26T13:09:08;21.20;99.90
18225;DHT22;9237;48.590;8.854;2022-10-26T13:11:45;21.30;99.90
18225;DHT22;9237;48.590;8.854;2022-10-26T13:14:20;21.30;99.90
18225;DHT22;9237;48.590;8.854;2022-10-26T13:16:50;21.40;99.90
18225;DHT22;9237;48.590;8.854;2022-10-26T13:19:35;21.50;99.90
18225;DHT22;9237;48.590;8.854;2022-10-26T13:22:04;21.60;99.90
18225;DHT22;9237;48.590;8.854;2022-10-26T13:24:33;21.60;99.90
18225;DHT22;9237;48.590;8.854;2022-10-26T13:30:19;21.60;99.90
18225;DHT22;9237;48.590;8.854;2022-10-26T13:32:51;21.50;99.90
18225;DHT22;9237;48.590;8.854;2022-10-26T13:35:22;21.40;99.90
18225;DHT22;9237;48.590;8.854;2022-10-26T13:37:52;21.40;99.90
18225;DHT22;9237;48.590;8.854;2022-10-26T13:40:21;21.50;99.90
18225;DHT22;9237;48.590;8.854;2022-10-26T13:42:53;21.60;99.90
18225;DHT22;9237;48.590;8.854;2022-10-26T13:45:23;21.90;99.90
18225;DHT22;9237;48.590;8.854;2022-10-26T13:47:55;22.40;99.90
18225;DHT22;9237;48.590;8.854;2022-10-26T13:50:27;23.50;99.90
18225;DHT22;9237;48.590;8.854;2022-10-26T13:52:57;24.90;96.40
18225;DHT22;9237;48.590;8.854;2022-10-26T13:55:27;25.50;94.30
18225;DHT22;9237;48.590;8.854;2022-10-26T13:58:13;26.00;93.10
18225;DHT22;9237;48.590;8.854;2022-10-26T14:03:40;26.00;91.20
18225;DHT22;9237;48.590;8.854;2022-10-26T14:06:14;26.30;90.60
18225;DHT22;9237;48.590;8.854;2022-10-26T14:08:42;26.50;90.10
18225;DHT22;9237;48.590;8.854;2022-10-26T14:11:13;26.60;88.50
18225;DHT22;9237;48.590;8.854;2022-10-26T14:13:40;26.50;87.10
18225;DHT22;9237;48.590;8.854;2022-10-26T14:16:09;26.30;88.10
18225;DHT22;9237;48.590;8.854;2022-10-26T14:18:37;26.70;87.30
18225;DHT22;9237;48.590;8.854;2022-10-26T14:21:06;27.50;85.90
18225;DHT22;9237;48.590;8.854;2022-10-26T14:23:45;28.10;81.00
18225;DHT22;9237;48.590;8.854;2022-10-26T14:26:18;28.10;82.70
18225;DHT22;9237;48.590;8.854;2022-10-26T14:28:47;28.20;79.40
18225;DHT22;9237;48.590;8.854;2022-10-26T14:31:21;27.70;79.20
18225;DHT22;9237;48.590;8.854;2022-10-26T14:33:48;26.90;80.00
18225;DHT22;9237;48.590;8.854;2022-10-26T14:36:16;26.80;80.60
18225;DHT22;9237;48.590;8.854;2022-10-26T14:38:48;27.00;81.60
18225;DHT22;9237;48.590;8.854;2022-10-26T14:41:17;27.40;79.00
18225;DHT22;9237;48.590;8.854;2022-10-26T14:43:45;27.50;78.70
18225;DHT22;9237;48.590;8.854;2022-10-26T14:46:13;27.50;78.10
18225;DHT22;9237;48.590;8.854;2022-10-26T14:48:50;26.10;77.30
18225;DHT22;9237;48.590;8.854;2022-10-26T14:51:19;26.80;79.00
18225;DHT22;9237;48.590;8.854;2022-10-26T14:53:49;26.70;78.90
18225;DHT22;9237;48.590;8.854;2022-10-26T14:56:21;26.60;79.90
18225;DHT22;9237;48.590;8.854;2022-10-26T14:58:49;26.20;80.80
18225;DHT22;9237;48.590;8.854;2022-10-26T15:01:27;26.20;80.40
18225;DHT22;9237;48.590;8.854;2022-10-26T15:03:56;25.90;80.80
18225;DHT22;9237;48.590;8.854;2022-10-26T15:06:29;25.70;81.50
18225;DHT22;9237;48.590;8.854;2022-10-26T15:08:59;25.80;81.40
18225;DHT22;9237;48.590;8.854;2022-10-26T15:11:27;25.90;80.50
18225;DHT22;9237;48.590;8.854;2022-10-26T15:13:55;25.30;81.80
18225;DHT22;9237;48.590;8.854;2022-10-26T15:16:25;25.30;82.70
18225;DHT22;9237;48.590;8.854;2022-10-26T15:18:58;25.10;83.50
18225;DHT22;9237;48.590;8.854;2022-10-26T15:21:32;24.30;85.00
18225;DHT22;9237;48.590;8.854;2022-10-26T15:24:28;24.00;86.80
18225;DHT22;9237;48.590;8.854;2022-10-26T15:26:56;24.20;86.70
18225;DHT22;9237;48.590;8.854;2022-10-26T15:29:35;24.00;87.60
18225;DHT22;9237;48.590;8.854;2022-10-26T15:32:05;23.30;90.30
18225;DHT22;9237;48.590;8.854;2022-10-26T15:34:34;22.70;91.20
18225;DHT22;9237;48.590;8.854;2022-10-26T15:37:01;22.40;91.70
18225;DHT22;9237;48.590;8.854;2022-10-26T15:39:30;22.20;92.40
18225;DHT22;9237;48.590;8.854;2022-10-26T15:41:59;22.10;93.20
18225;DHT22;9237;48.590;8.854;2022-10-26T15:44:26;22.00;93.90
18225;DHT22;9237;48.590;8.854;2022-10-26T15:47:00;21.60;94.60
18225;DHT22;9237;48.590;8.854;2022-10-26T15:49:27;20.90;95.90
18225;DHT22;9237;48.590;8.854;2022-10-26T15:51:54;20.30;97.30
18225;DHT22;9237;48.590;8.854;2022-10-26T15:54:21;19.70;98.90
18225;DHT22;9237;48.590;8.854;2022-10-26T15:56:50;19.20;99.90
18225;DHT22;9237;48.590;8.854;2022-10-26T15:59:18;18.70;99.90
18225;DHT22;9237;48.590;8.854;2022-10-26T16:01:45;18.30;99.90
18225;DHT22;9237;48.590;8.854;2022-10-26T16:04:12;18.00;99.90
18225;DHT22;9237;48.590;8.854;2022-10-26T16:06:40;17.70;99.90
18225;DHT22;9237;48.590;8.854;2022-10-26T16:09:12;17.50;99.90
18225;DHT22;9237;48.590;8.854;2022-10-26T16:11:40;17.30;99.90
18225;DHT22;9237;48.590;8.854;2022-10-26T16:14:09;17.10;99.90
18225;DHT22;9237;48.590;8.854;2022-10-26T16:16:37;16.90;99.90
18225;DHT22;9237;48.590;8.854;2022-10-26T16:19:04;16.70;99.90
18225;DHT22;9237;48.590;8.854;2022-10-26T16:21:31;16.60;99.90
18225;DHT22;9237;48.590;8.854;2022-10-26T16:23:58;16.40;99.90
18225;DHT22;9237;48.590;8.854;2022-10-26T16:26:24;16.30;99.90